sensor_id;sensor_type;location;lat;lon;timestamp;temperature;humidity
34201;DHT22;20469;55.638;37.670;2023-04-03T00:00:56;8.90;99.90
34201;DHT22;20469;55.638;37.670;2023-04-03T00:03:23;9.00;99.90
34201;DHT22;20469;55.638;37.670;2023-04-03T00:05:51;9.00;99.90
34201;DHT22;20469;55.638;37.670;2023-04-03T00:08:19;9.10;99.90
34201;DHT22;20469;55.638;37.670;2023-04-03T00:10:47;8.90;99.90
34201;DHT22;20469;55.638;37.670;2023-04-03T00:13:14;8.80;99.90
34201;DHT22;20469;55.638;37.670;2023-04-03T00:15:42;8.80;99.90
34201;DHT22;20469;55.638;37.670;2023-04-03T00:18:10;8.70;99.90
34201;DHT22;20469;55.638;37.670;2023-04-03T00:20:37;8.70;99.90
34201;DHT22;20469;55.638;37.670;2023-04-03T00:23:04;8.60;99.90
34201;DHT22;20469;55.638;37.670;2023-04-03T00:25:31;8.50;99.90
34201;DHT22;20469;55.638;37.670;2023-04-03T00:28:00;8.50;99.90
34201;DHT22;20469;55.638;37.670;2023-04-03T00:30:27;8.60;99.90
34201;DHT22;20469;55.638;37.670;2023-04-03T00:32:54;8.60;99.90
34201;DHT22;20469;55.638;37.670;2023-04-03T00:35:23;8.60;99.90
34201;DHT22;20469;55.638;37.670;2023-04-03T00:37:52;8.40;99.90
34201;DHT22;20469;55.638;37.670;2023-04-03T00:40:21;8.40;99.90
34201;DHT22;20469;55.638;37.670;2023-04-03T00:42:52;8.40;99.90
34201;DHT22;20469;55.638;37.670;2023-04-03T00:45:37;8.40;99.90
34201;DHT22;20469;55.638;37.670;2023-04-03T00:48:07;8.40;99.90
34201;DHT22;20469;55.638;37.670;2023-04-03T00:50:37;8.30;99.90
34201;DHT22;20469;55.638;37.670;2023-04-03T00:53:06;8.30;99.90
34201;DHT22;20469;55.638;37.670;2023-04-03T00:55:36;8.40;99.90
34201;DHT22;20469;55.638;37.670;2023-04-03T00:58:05;8.30;99.90
34201;DHT22;20469;55.638;37.670;2023-04-03T01:00:36;8.30;99.90
34201;DHT22;20469;55.638;37.670;2023-04-03T01:03:05;8.40;99.90
34201;DHT22;20469;55.638;37.670;2023-04-03T01:05:32;8.30;99.90
34201;DHT22;20469;55.638;37.670;2023-04-03T01:07:59;8.20;99.90
34201;DHT22;20469;55.638;37.670;2023-04-03T01:10:27;8.20;99.90
34201;DHT22;20469;55.638;37.670;2023-04-03T01:12:54;8.30;99.90
34201;DHT22;20469;55.638;37.670;2023-04-03T01:15:25;8.20;99.90
34201;DHT22;20469;55.638;37.670;2023-04-03T01:17:55;8.10;99.90
34201;DHT22;20469;55.638;37.670;2023-04-03T01:25:33;8.10;99.90
34201;DHT22;20469;55.638;37.670;2023-04-03T01:28:00;8.00;99.90
34201;DHT22;20469;55.638;37.670;2023-04-03T01:31:20;8.00;99.90
34201;DHT22;20469;55.638;37.670;2023-04-03T01:33:21;7.90;99.90
34201;DHT22;20469;55.638;37.670;2023-04-03T01:35:48;7.80;99.90
34201;DHT22;20469;55.638;37.670;2023-04-03T01:38:15;7.80;99.90
34201;DHT22;20469;55.638;37.670;2023-04-03T01:40:42;7.70;99.90
34201;DHT22;20469;55.638;37.670;2023-04-03T01:43:09;7.70;99.90
34201;DHT22;20469;55.638;37.670;2023-04-03T01:45:36;7.70;99.90
34201;DHT22;20469;55.638;37.670;2023-04-03T01:48:04;7.80;99.90
34201;DHT22;20469;55.638;37.670;2023-04-03T01:50:32;7.80;99.90
34201;DHT22;20469;55.638;37.670;2023-04-03T01:52:59;7.70;99.90
34201;DHT22;20469;55.638;37.670;2023-04-03T01:55:26;7.70;99.90
34201;DHT22;20469;55.638;37.670;2023-04-03T01:57:53;7.70;99.90
34201;DHT22;20469;55.638;37.670;2023-04-03T02:00:20;7.70;99.90
34201;DHT22;20469;55.638;37.670;2023-04-03T02:02:47;7.60;99.90
34201;DHT22;20469;55.638;37.670;2023-04-03T02:05:14;7.60;99.90
34201;DHT22;20469;55.638;37.670;2023-04-03T02:07:41;7.60;99.90
34201;DHT22;20469;55.638;37.670;2023-04-03T02:10:09;7.50;99.90
34201;DHT22;20469;55.638;37.670;2023-04-03T02:12:36;7.50;99.90
34201;DHT22;20469;55.638;37.670;2023-04-03T02:15:03;7.30;99.90
34201;DHT22;20469;55.638;37.670;2023-04-03T02:17:31;7.20;99.90
34201;DHT22;20469;55.638;37.670;2023-04-03T02:19:58;7.30;99.90
34201;DHT22;20469;55.638;37.670;2023-04-03T02:22:25;7.40;99.90
34201;DHT22;20469;55.638;37.670;2023-04-03T02:24:52;7.40;99.90
34201;DHT22;20469;55.638;37.670;2023-04-03T02:27:19;7.40;99.90
34201;DHT22;20469;55.638;37.670;2023-04-03T02:29:47;7.40;99.90
34201;DHT22;20469;55.638;37.670;2023-04-03T02:32:14;7.40;99.90
34201;DHT22;20469;55.638;37.670;2023-04-03T02:34:41;7.40;99.90
34201;DHT22;20469;55.638;37.670;2023-04-03T02:37:08;7.40;99.90
34201;DHT22;20469;55.638;37.670;2023-04-03T02:39:35;7.30;99.90
34201;DHT22;20469;55.638;37.670;2023-04-03T02:42:02;7.30;99.90
34201;DHT22;20469;55.638;37.670;2023-04-03T02:44:29;7.30;99.90
34201;DHT22;20469;55.638;37.670;2023-04-03T02:46:56;7.20;99.90
34201;DHT22;20469;55.638;37.670;2023-04-03T02:49:23;7.30;99.90
34201;DHT22;20469;55.638;37.670;2023-04-03T02:51:51;7.30;99.90
34201;DHT22;20469;55.638;37.670;2023-04-03T02:54:18;7.30;99.90
34201;DHT22;20469;55.638;37.670;2023-04-03T02:56:45;7.10;99.90
34201;DHT22;20469;55.638;37.670;2023-04-03T02:59:12;7.10;99.90
34201;DHT22;20469;55.638;37.670;2023-04-03T03:01:39;7.10;99.90
34201;DHT22;20469;55.638;37.670;2023-04-03T03:04:06;7.10;99.90
34201;DHT22;20469;55.638;37.670;2023-04-03T03:06:33;7.00;99.90
34201;DHT22;20469;55.638;37.670;2023-04-03T03:09:00;7.00;99.90
34201;DHT22;20469;55.638;37.670;2023-04-03T03:11:27;7.00;99.90
34201;DHT22;20469;55.638;37.670;2023-04-03T03:13:54;7.00;99.90
34201;DHT22;20469;55.638;37.670;2023-04-03T03:16:22;6.90;99.90
34201;DHT22;20469;55.638;37.670;2023-04-03T03:18:49;6.90;99.90
34201;DHT22;20469;55.638;37.670;2023-04-03T03:21:16;6.90;99.90
34201;DHT22;20469;55.638;37.670;2023-04-03T03:23:43;6.90;99.90
34201;DHT22;20469;55.638;37.670;2023-04-03T03:26:11;6.90;99.90
34201;DHT22;20469;55.638;37.670;2023-04-03T03:28:39;7.00;99.90
34201;DHT22;20469;55.638;37.670;2023-04-03T03:31:08;7.00;99.90
34201;DHT22;20469;55.638;37.670;2023-04-03T03:33:35;7.00;99.90
34201;DHT22;20469;55.638;37.670;2023-04-03T03:36:02;6.90;99.90
34201;DHT22;20469;55.638;37.670;2023-04-03T03:38:30;7.00;99.90
34201;DHT22;20469;55.638;37.670;2023-04-03T03:40:57;6.90;99.90
34201;DHT22;20469;55.638;37.670;2023-04-03T03:43:24;6.90;99.90
34201;DHT22;20469;55.638;37.670;2023-04-03T03:45:52;6.80;99.90
34201;DHT22;20469;55.638;37.670;2023-04-03T03:48:20;6.70;99.90
34201;DHT22;20469;55.638;37.670;2023-04-03T03:50:48;6.80;99.90
34201;DHT22;20469;55.638;37.670;2023-04-03T03:53:15;6.80;99.90
34201;DHT22;20469;55.638;37.670;2023-04-03T03:55:42;6.90;99.90
34201;DHT22;20469;55.638;37.670;2023-04-03T03:58:09;6.90;99.90
34201;DHT22;20469;55.638;37.670;2023-04-03T04:00:37;6.90;99.90
34201;DHT22;20469;55.638;37.670;2023-04-03T04:03:04;6.90;99.90
34201;DHT22;20469;55.638;37.670;2023-04-03T04:05:31;6.90;99.90
34201;DHT22;20469;55.638;37.670;2023-04-03T04:08:02;6.90;99.90
34201;DHT22;20469;55.638;37.670;2023-04-03T04:10:29;6.90;99.90
34201;DHT22;20469;55.638;37.670;2023-04-03T04:12:56;6.90;99.90
34201;DHT22;20469;55.638;37.670;2023-04-03T04:15:24;7.00;99.90
34201;DHT22;20469;55.638;37.670;2023-04-03T04:17:52;7.10;99.90
34201;DHT22;20469;55.638;37.670;2023-04-03T04:20:20;7.10;99.90
34201;DHT22;20469;55.638;37.670;2023-04-03T04:22:47;7.30;99.90
34201;DHT22;20469;55.638;37.670;2023-04-03T04:25:14;7.20;99.90
34201;DHT22;20469;55.638;37.670;2023-04-03T04:27:42;7.30;99.90
34201;DHT22;20469;55.638;37.670;2023-04-03T04:30:10;7.30;99.90
34201;DHT22;20469;55.638;37.670;2023-04-03T04:32:37;7.30;99.90
34201;DHT22;20469;55.638;37.670;2023-04-03T04:35:04;7.30;99.90
34201;DHT22;20469;55.638;37.670;2023-04-03T04:37:32;7.40;99.90
34201;DHT22;20469;55.638;37.670;2023-04-03T04:39:59;7.50;99.90
34201;DHT22;20469;55.638;37.670;2023-04-03T04:42:27;7.50;99.90
34201;DHT22;20469;55.638;37.670;2023-04-03T04:44:54;7.60;99.90
34201;DHT22;20469;55.638;37.670;2023-04-03T04:47:21;7.70;99.90
34201;DHT22;20469;55.638;37.670;2023-04-03T04:49:48;7.60;99.90
34201;DHT22;20469;55.638;37.670;2023-04-03T04:52:15;7.40;99.90
34201;DHT22;20469;55.638;37.670;2023-04-03T04:54:42;7.50;99.90
34201;DHT22;20469;55.638;37.670;2023-04-03T04:57:09;7.60;99.90
34201;DHT22;20469;55.638;37.670;2023-04-03T04:59:37;7.70;99.90
34201;DHT22;20469;55.638;37.670;2023-04-03T05:02:04;7.80;99.90
34201;DHT22;20469;55.638;37.670;2023-04-03T05:04:32;7.90;99.90
34201;DHT22;20469;55.638;37.670;2023-04-03T05:07:00;8.00;99.90
34201;DHT22;20469;55.638;37.670;2023-04-03T05:09:27;8.00;99.90
34201;DHT22;20469;55.638;37.670;2023-04-03T05:14:40;8.20;99.90
34201;DHT22;20469;55.638;37.670;2023-04-03T05:17:07;8.00;99.90
34201;DHT22;20469;55.638;37.670;2023-04-03T05:19:34;8.10;99.90
34201;DHT22;20469;55.638;37.670;2023-04-03T05:22:01;8.00;99.90
34201;DHT22;20469;55.638;37.670;2023-04-03T05:24:29;8.10;99.90
34201;DHT22;20469;55.638;37.670;2023-04-03T05:26:56;8.10;99.90
34201;DHT22;20469;55.638;37.670;2023-04-03T05:29:23;8.10;99.90
34201;DHT22;20469;55.638;37.670;2023-04-03T05:31:50;8.00;99.90
34201;DHT22;20469;55.638;37.670;2023-04-03T05:34:18;7.90;99.90
34201;DHT22;20469;55.638;37.670;2023-04-03T05:36:45;8.00;99.90
34201;DHT22;20469;55.638;37.670;2023-04-03T05:41:58;7.80;99.90
34201;DHT22;20469;55.638;37.670;2023-04-03T05:44:26;8.10;99.90
34201;DHT22;20469;55.638;37.670;2023-04-03T05:46:53;8.10;99.90
34201;DHT22;20469;55.638;37.670;2023-04-03T05:49:20;8.20;99.90
34201;DHT22;20469;55.638;37.670;2023-04-03T05:51:47;8.30;99.90
34201;DHT22;20469;55.638;37.670;2023-04-03T05:54:26;8.10;99.90
34201;DHT22;20469;55.638;37.670;2023-04-03T05:56:54;8.10;99.90
34201;DHT22;20469;55.638;37.670;2023-04-03T05:59:21;8.00;99.90
34201;DHT22;20469;55.638;37.670;2023-04-03T06:01:48;7.90;99.90
34201;DHT22;20469;55.638;37.670;2023-04-03T06:07:02;8.10;99.90
34201;DHT22;20469;55.638;37.670;2023-04-03T06:09:29;8.50;99.90
34201;DHT22;20469;55.638;37.670;2023-04-03T06:11:57;8.70;99.90
34201;DHT22;20469;55.638;37.670;2023-04-03T06:14:25;8.90;99.90
34201;DHT22;20469;55.638;37.670;2023-04-03T06:16:53;9.10;99.90
34201;DHT22;20469;55.638;37.670;2023-04-03T06:19:21;9.00;99.90
34201;DHT22;20469;55.638;37.670;2023-04-03T06:21:48;9.20;99.90
34201;DHT22;20469;55.638;37.670;2023-04-03T06:24:33;9.50;99.90
34201;DHT22;20469;55.638;37.670;2023-04-03T06:27:00;9.70;99.90
34201;DHT22;20469;55.638;37.670;2023-04-03T06:29:27;9.90;99.90
34201;DHT22;20469;55.638;37.670;2023-04-03T06:31:55;10.00;99.90
34201;DHT22;20469;55.638;37.670;2023-04-03T06:34:22;10.40;99.90
34201;DHT22;20469;55.638;37.670;2023-04-03T06:36:49;10.50;99.90
34201;DHT22;20469;55.638;37.670;2023-04-03T06:39:36;10.40;90.20
34201;DHT22;20469;55.638;37.670;2023-04-03T06:42:04;11.10;74.30
34201;DHT22;20469;55.638;37.670;2023-04-03T06:44:31;11.10;45.00
34201;DHT22;20469;55.638;37.670;2023-04-03T06:47:00;11.40;34.10
34201;DHT22;20469;55.638;37.670;2023-04-03T06:49:27;11.50;29.60
34201;DHT22;20469;55.638;37.670;2023-04-03T06:51:55;12.10;26.30
34201;DHT22;20469;55.638;37.670;2023-04-03T06:54:23;12.40;12.10
34201;DHT22;20469;55.638;37.670;2023-04-03T06:56:50;12.70;5.70
34201;DHT22;20469;55.638;37.670;2023-04-03T06:59:17;12.00;1.00
34201;DHT22;20469;55.638;37.670;2023-04-03T07:01:45;12.50;6.70
34201;DHT22;20469;55.638;37.670;2023-04-03T07:04:12;13.50;1.00
34201;DHT22;20469;55.638;37.670;2023-04-03T07:06:39;14.10;1.00
34201;DHT22;20469;55.638;37.670;2023-04-03T07:09:07;14.80;1.00
34201;DHT22;20469;55.638;37.670;2023-04-03T07:11:34;15.00;1.00
34201;DHT22;20469;55.638;37.670;2023-04-03T07:14:02;15.10;1.00
34201;DHT22;20469;55.638;37.670;2023-04-03T07:16:30;16.00;1.00
34201;DHT22;20469;55.638;37.670;2023-04-03T07:18:58;15.90;1.00
34201;DHT22;20469;55.638;37.670;2023-04-03T07:21:25;15.00;1.00
34201;DHT22;20469;55.638;37.670;2023-04-03T07:23:52;16.20;1.00
34201;DHT22;20469;55.638;37.670;2023-04-03T07:26:20;16.30;1.00
34201;DHT22;20469;55.638;37.670;2023-04-03T07:28:50;15.30;1.00
34201;DHT22;20469;55.638;37.670;2023-04-03T07:31:17;16.10;1.00
34201;DHT22;20469;55.638;37.670;2023-04-03T07:33:45;16.60;1.00
34201;DHT22;20469;55.638;37.670;2023-04-03T07:36:16;15.70;1.00
34201;DHT22;20469;55.638;37.670;2023-04-03T07:38:44;14.30;1.00
34201;DHT22;20469;55.638;37.670;2023-04-03T07:41:17;13.60;1.00
34201;DHT22;20469;55.638;37.670;2023-04-03T07:43:45;13.60;1.00
34201;DHT22;20469;55.638;37.670;2023-04-03T07:46:13;12.50;1.00
34201;DHT22;20469;55.638;37.670;2023-04-03T07:48:41;12.30;1.00
34201;DHT22;20469;55.638;37.670;2023-04-03T07:51:09;12.00;1.00
34201;DHT22;20469;55.638;37.670;2023-04-03T07:53:37;11.90;1.00
34201;DHT22;20469;55.638;37.670;2023-04-03T07:56:04;11.70;1.00
34201;DHT22;20469;55.638;37.670;2023-04-03T07:58:31;11.50;1.00
34201;DHT22;20469;55.638;37.670;2023-04-03T08:00:59;11.60;1.00
34201;DHT22;20469;55.638;37.670;2023-04-03T08:03:26;11.70;1.00
34201;DHT22;20469;55.638;37.670;2023-04-03T08:05:54;11.90;1.00
34201;DHT22;20469;55.638;37.670;2023-04-03T08:08:22;11.80;1.00
34201;DHT22;20469;55.638;37.670;2023-04-03T08:10:54;11.80;1.00
34201;DHT22;20469;55.638;37.670;2023-04-03T08:13:21;11.70;1.00
34201;DHT22;20469;55.638;37.670;2023-04-03T08:15:49;11.70;1.00
34201;DHT22;20469;55.638;37.670;2023-04-03T08:18:17;11.70;1.00
34201;DHT22;20469;55.638;37.670;2023-04-03T08:20:45;11.80;1.00
34201;DHT22;20469;55.638;37.670;2023-04-03T08:23:12;12.10;1.00
34201;DHT22;20469;55.638;37.670;2023-04-03T08:25:40;12.10;1.00
34201;DHT22;20469;55.638;37.670;2023-04-03T08:28:09;12.10;1.00
34201;DHT22;20469;55.638;37.670;2023-04-03T08:30:41;12.20;1.00
34201;DHT22;20469;55.638;37.670;2023-04-03T08:33:09;12.30;1.00
34201;DHT22;20469;55.638;37.670;2023-04-03T08:35:41;12.40;1.00
34201;DHT22;20469;55.638;37.670;2023-04-03T08:38:09;12.20;1.00
34201;DHT22;20469;55.638;37.670;2023-04-03T08:40:37;12.20;1.00
34201;DHT22;20469;55.638;37.670;2023-04-03T08:45:53;12.00;1.00
34201;DHT22;20469;55.638;37.670;2023-04-03T08:48:33;11.80;1.00
34201;DHT22;20469;55.638;37.670;2023-04-03T08:51:04;12.20;1.00
34201;DHT22;20469;55.638;37.670;2023-04-03T08:53:42;12.60;1.00
34201;DHT22;20469;55.638;37.670;2023-04-03T08:56:11;12.50;1.00
34201;DHT22;20469;55.638;37.670;2023-04-03T08:59:05;12.90;1.00
34201;DHT22;20469;55.638;37.670;2023-04-03T09:01:38;13.30;1.00
34201;DHT22;20469;55.638;37.670;2023-04-03T09:04:15;13.70;1.00
34201;DHT22;20469;55.638;37.670;2023-04-03T09:06:51;14.10;1.00
34201;DHT22;20469;55.638;37.670;2023-04-03T09:09:36;13.90;1.00
34201;DHT22;20469;55.638;37.670;2023-04-03T09:12:27;13.40;1.00
34201;DHT22;20469;55.638;37.670;2023-04-03T09:17:45;12.50;1.00
34201;DHT22;20469;55.638;37.670;2023-04-03T09:22:59;12.70;1.00
34201;DHT22;20469;55.638;37.670;2023-04-03T09:25:34;12.80;1.00
34201;DHT22;20469;55.638;37.670;2023-04-03T09:28:04;12.90;1.00
34201;DHT22;20469;55.638;37.670;2023-04-03T09:30:36;13.30;1.00
34201;DHT22;20469;55.638;37.670;2023-04-03T09:33:05;13.00;1.00
34201;DHT22;20469;55.638;37.670;2023-04-03T09:35:36;12.70;1.00
34201;DHT22;20469;55.638;37.670;2023-04-03T09:40:43;12.90;1.00
34201;DHT22;20469;55.638;37.670;2023-04-03T09:43:20;12.90;1.00
34201;DHT22;20469;55.638;37.670;2023-04-03T09:45:48;13.20;1.00
34201;DHT22;20469;55.638;37.670;2023-04-03T09:48:21;13.50;1.00
34201;DHT22;20469;55.638;37.670;2023-04-03T09:53:41;13.40;1.00
34201;DHT22;20469;55.638;37.670;2023-04-03T10:01:34;13.60;1.00
34201;DHT22;20469;55.638;37.670;2023-04-03T10:04:15;13.90;1.00
34201;DHT22;20469;55.638;37.670;2023-04-03T10:09:32;13.90;1.00
34201;DHT22;20469;55.638;37.670;2023-04-03T10:12:06;14.20;1.00
34201;DHT22;20469;55.638;37.670;2023-04-03T10:14:53;14.10;1.00
34201;DHT22;20469;55.638;37.670;2023-04-03T10:17:32;13.70;1.00
34201;DHT22;20469;55.638;37.670;2023-04-03T10:23:00;14.20;1.00
34201;DHT22;20469;55.638;37.670;2023-04-03T10:25:35;14.00;1.00
34201;DHT22;20469;55.638;37.670;2023-04-03T10:28:20;13.40;1.00
34201;DHT22;20469;55.638;37.670;2023-04-03T10:36:49;13.40;1.00
34201;DHT22;20469;55.638;37.670;2023-04-03T10:39:44;13.40;1.00
34201;DHT22;20469;55.638;37.670;2023-04-03T10:45:23;13.60;1.00
34201;DHT22;20469;55.638;37.670;2023-04-03T10:50:50;14.00;1.00
34201;DHT22;20469;55.638;37.670;2023-04-03T10:56:51;14.30;1.00
34201;DHT22;20469;55.638;37.670;2023-04-03T10:59:07;14.60;1.00
34201;DHT22;20469;55.638;37.670;2023-04-03T11:01:41;13.80;1.00
34201;DHT22;20469;55.638;37.670;2023-04-03T11:04:10;14.00;1.00
34201;DHT22;20469;55.638;37.670;2023-04-03T11:06:50;13.90;1.00
34201;DHT22;20469;55.638;37.670;2023-04-03T11:09:28;14.20;1.00
34201;DHT22;20469;55.638;37.670;2023-04-03T11:12:05;14.40;1.00
34201;DHT22;20469;55.638;37.670;2023-04-03T11:14:38;14.80;1.00
34201;DHT22;20469;55.638;37.670;2023-04-03T11:25:33;13.90;1.00
34201;DHT22;20469;55.638;37.670;2023-04-03T11:28:06;13.80;1.00
34201;DHT22;20469;55.638;37.670;2023-04-03T11:36:28;14.10;1.00
34201;DHT22;20469;55.638;37.670;2023-04-03T11:39:17;14.10;1.00
34201;DHT22;20469;55.638;37.670;2023-04-03T11:41:47;14.10;1.00
34201;DHT22;20469;55.638;37.670;2023-04-03T11:44:37;14.00;1.00
34201;DHT22;20469;55.638;37.670;2023-04-03T11:47:11;13.80;1.00
34201;DHT22;20469;55.638;37.670;2023-04-03T11:50:02;13.80;1.00
34201;DHT22;20469;55.638;37.670;2023-04-03T12:13:41;13.50;1.00
34201;DHT22;20469;55.638;37.670;2023-04-03T12:16:23;13.50;1.00
34201;DHT22;20469;55.638;37.670;2023-04-03T12:37:30;13.20;1.00
34201;DHT22;20469;55.638;37.670;2023-04-03T12:42:42;13.30;1.00
34201;DHT22;20469;55.638;37.670;2023-04-03T12:45:24;13.30;1.00
34201;DHT22;20469;55.638;37.670;2023-04-03T12:47:54;13.20;1.00
34201;DHT22;20469;55.638;37.670;2023-04-03T12:50:27;13.10;1.00
34201;DHT22;20469;55.638;37.670;2023-04-03T12:53:06;13.10;1.00
34201;DHT22;20469;55.638;37.670;2023-04-03T12:55:33;13.10;1.00
34201;DHT22;20469;55.638;37.670;2023-04-03T12:58:16;13.00;1.00
34201;DHT22;20469;55.638;37.670;2023-04-03T13:00:43;12.90;1.00
34201;DHT22;20469;55.638;37.670;2023-04-03T13:03:24;12.90;1.00
34201;DHT22;20469;55.638;37.670;2023-04-03T13:06:00;13.00;1.00
34201;DHT22;20469;55.638;37.670;2023-04-03T13:08:28;12.90;1.00
34201;DHT22;20469;55.638;37.670;2023-04-03T13:10:58;12.90;1.00
34201;DHT22;20469;55.638;37.670;2023-04-03T13:13:26;12.90;1.00
34201;DHT22;20469;55.638;37.670;2023-04-03T13:15:54;12.90;1.00
34201;DHT22;20469;55.638;37.670;2023-04-03T13:18:29;12.80;1.00
34201;DHT22;20469;55.638;37.670;2023-04-03T13:21:47;12.80;1.00
34201;DHT22;20469;55.638;37.670;2023-04-03T13:23:52;12.80;1.00
34201;DHT22;20469;55.638;37.670;2023-04-03T13:26:33;12.80;1.00
34201;DHT22;20469;55.638;37.670;2023-04-03T13:29:04;12.90;1.00
34201;DHT22;20469;55.638;37.670;2023-04-03T13:31:35;12.90;1.00
34201;DHT22;20469;55.638;37.670;2023-04-03T13:34:11;12.90;1.00
34201;DHT22;20469;55.638;37.670;2023-04-03T13:36:45;13.00;1.00
34201;DHT22;20469;55.638;37.670;2023-04-03T13:41:51;12.90;1.00
34201;DHT22;20469;55.638;37.670;2023-04-03T13:49:41;12.90;1.00
34201;DHT22;20469;55.638;37.670;2023-04-03T13:52:27;12.90;1.00
34201;DHT22;20469;55.638;37.670;2023-04-03T13:55:00;13.00;1.00
34201;DHT22;20469;55.638;37.670;2023-04-03T13:57:30;13.00;1.00
34201;DHT22;20469;55.638;37.670;2023-04-03T13:59:57;13.00;1.00
34201;DHT22;20469;55.638;37.670;2023-04-03T14:02:33;12.90;1.00
34201;DHT22;20469;55.638;37.670;2023-04-03T14:05:02;12.90;1.00
34201;DHT22;20469;55.638;37.670;2023-04-03T14:07:30;12.90;1.00
34201;DHT22;20469;55.638;37.670;2023-04-03T14:09:58;12.90;1.00
34201;DHT22;20469;55.638;37.670;2023-04-03T14:12:35;12.90;1.00
34201;DHT22;20469;55.638;37.670;2023-04-03T14:15:16;13.00;1.00
34201;DHT22;20469;55.638;37.670;2023-04-03T14:17:43;13.00;1.00
34201;DHT22;20469;55.638;37.670;2023-04-03T14:20:16;13.10;1.00
34201;DHT22;20469;55.638;37.670;2023-04-03T14:22:43;13.00;1.00
34201;DHT22;20469;55.638;37.670;2023-04-03T14:25:11;13.00;1.00
34201;DHT22;20469;55.638;37.670;2023-04-03T14:27:44;13.20;1.00
34201;DHT22;20469;55.638;37.670;2023-04-03T14:30:19;13.10;1.00
34201;DHT22;20469;55.638;37.670;2023-04-03T14:32:47;13.00;1.00
34201;DHT22;20469;55.638;37.670;2023-04-03T14:35:17;12.90;1.00
34201;DHT22;20469;55.638;37.670;2023-04-03T14:37:45;12.80;1.00
34201;DHT22;20469;55.638;37.670;2023-04-03T14:40:17;12.80;1.00
34201;DHT22;20469;55.638;37.670;2023-04-03T14:42:44;12.90;1.00
34201;DHT22;20469;55.638;37.670;2023-04-03T14:45:15;12.80;1.00
34201;DHT22;20469;55.638;37.670;2023-04-03T14:47:49;12.90;1.00
34201;DHT22;20469;55.638;37.670;2023-04-03T14:50:21;12.90;1.00
34201;DHT22;20469;55.638;37.670;2023-04-03T14:52:50;12.90;1.00
34201;DHT22;20469;55.638;37.670;2023-04-03T14:55:20;12.90;1.00
34201;DHT22;20469;55.638;37.670;2023-04-03T14:57:48;12.90;1.00
34201;DHT22;20469;55.638;37.670;2023-04-03T15:00:17;12.90;1.00
34201;DHT22;20469;55.638;37.670;2023-04-03T15:02:46;12.90;1.00
34201;DHT22;20469;55.638;37.670;2023-04-03T15:05:15;12.90;1.00
34201;DHT22;20469;55.638;37.670;2023-04-03T15:07:48;13.00;1.00
34201;DHT22;20469;55.638;37.670;2023-04-03T15:10:18;13.00;1.00
34201;DHT22;20469;55.638;37.670;2023-04-03T15:12:47;13.00;1.00
34201;DHT22;20469;55.638;37.670;2023-04-03T15:15:16;12.90;1.00
34201;DHT22;20469;55.638;37.670;2023-04-03T15:17:44;12.90;1.00
34201;DHT22;20469;55.638;37.670;2023-04-03T15:20:20;12.90;1.00
34201;DHT22;20469;55.638;37.670;2023-04-03T15:22:48;12.80;1.00
34201;DHT22;20469;55.638;37.670;2023-04-03T15:25:15;12.80;1.00
34201;DHT22;20469;55.638;37.670;2023-04-03T15:27:42;12.80;1.00
34201;DHT22;20469;55.638;37.670;2023-04-03T15:30:17;12.80;1.00
34201;DHT22;20469;55.638;37.670;2023-04-03T15:32:45;12.80;1.00
34201;DHT22;20469;55.638;37.670;2023-04-03T15:35:12;12.70;1.00
34201;DHT22;20469;55.638;37.670;2023-04-03T15:37:40;12.60;1.00
34201;DHT22;20469;55.638;37.670;2023-04-03T15:40:07;12.60;1.00
34201;DHT22;20469;55.638;37.670;2023-04-03T15:42:35;12.60;1.00
34201;DHT22;20469;55.638;37.670;2023-04-03T15:45:02;12.60;1.00
34201;DHT22;20469;55.638;37.670;2023-04-03T15:47:29;12.50;1.00
34201;DHT22;20469;55.638;37.670;2023-04-03T15:49:56;12.50;1.00
34201;DHT22;20469;55.638;37.670;2023-04-03T15:52:24;12.50;1.00
34201;DHT22;20469;55.638;37.670;2023-04-03T15:54:51;12.50;1.00
34201;DHT22;20469;55.638;37.670;2023-04-03T15:57:18;12.50;1.00
34201;DHT22;20469;55.638;37.670;2023-04-03T15:59:45;12.50;1.00
34201;DHT22;20469;55.638;37.670;2023-04-03T16:02:13;12.50;1.00
34201;DHT22;20469;55.638;37.670;2023-04-03T16:04:40;12.50;1.00
34201;DHT22;20469;55.638;37.670;2023-04-03T16:07:08;12.50;1.00
34201;DHT22;20469;55.638;37.670;2023-04-03T16:09:35;12.40;1.00
34201;DHT22;20469;55.638;37.670;2023-04-03T16:12:03;12.40;1.00
34201;DHT22;20469;55.638;37.670;2023-04-03T16:14:30;12.40;1.00
34201;DHT22;20469;55.638;37.670;2023-04-03T16:16:58;12.40;1.00
34201;DHT22;20469;55.638;37.670;2023-04-03T16:19:29;12.40;1.00
34201;DHT22;20469;55.638;37.670;2023-04-03T16:21:57;12.40;1.00
34201;DHT22;20469;55.638;37.670;2023-04-03T16:24:25;12.40;1.00
34201;DHT22;20469;55.638;37.670;2023-04-03T16:26:52;12.30;1.00
34201;DHT22;20469;55.638;37.670;2023-04-03T16:29:20;12.30;1.00
34201;DHT22;20469;55.638;37.670;2023-04-03T16:31:47;12.30;1.00
34201;DHT22;20469;55.638;37.670;2023-04-03T16:34:14;12.30;1.00
34201;DHT22;20469;55.638;37.670;2023-04-03T16:36:42;12.30;1.00
34201;DHT22;20469;55.638;37.670;2023-04-03T16:39:10;12.30;1.00
34201;DHT22;20469;55.638;37.670;2023-04-03T16:41:37;12.30;1.00
34201;DHT22;20469;55.638;37.670;2023-04-03T16:44:04;12.30;1.00
34201;DHT22;20469;55.638;37.670;2023-04-03T16:46:33;12.30;1.00
34201;DHT22;20469;55.638;37.670;2023-04-03T16:49:01;12.30;1.00
34201;DHT22;20469;55.638;37.670;2023-04-03T16:51:28;12.20;1.00
34201;DHT22;20469;55.638;37.670;2023-04-03T16:53:55;12.30;1.00
34201;DHT22;20469;55.638;37.670;2023-04-03T16:56:22;12.20;1.00
34201;DHT22;20469;55.638;37.670;2023-04-03T16:58:49;12.20;1.00
34201;DHT22;20469;55.638;37.670;2023-04-03T17:01:18;12.20;1.00
34201;DHT22;20469;55.638;37.670;2023-04-03T17:07:09;12.20;1.00
34201;DHT22;20469;55.638;37.670;2023-04-03T17:09:37;12.20;1.00
34201;DHT22;20469;55.638;37.670;2023-04-03T17:12:04;12.20;1.00
34201;DHT22;20469;55.638;37.670;2023-04-03T17:14:32;12.10;1.00
34201;DHT22;20469;55.638;37.670;2023-04-03T17:16:59;12.10;1.00
34201;DHT22;20469;55.638;37.670;2023-04-03T17:19:27;12.00;1.00
34201;DHT22;20469;55.638;37.670;2023-04-03T17:21:55;12.00;1.00
34201;DHT22;20469;55.638;37.670;2023-04-03T17:24:22;11.90;1.00
34201;DHT22;20469;55.638;37.670;2023-04-03T17:26:49;11.90;1.00
34201;DHT22;20469;55.638;37.670;2023-04-03T17:29:16;11.90;1.00
34201;DHT22;20469;55.638;37.670;2023-04-03T17:31:44;11.80;1.00
34201;DHT22;20469;55.638;37.670;2023-04-03T17:34:11;11.80;1.00
34201;DHT22;20469;55.638;37.670;2023-04-03T17:36:39;11.70;1.00
34201;DHT22;20469;55.638;37.670;2023-04-03T17:39:07;11.70;1.00
34201;DHT22;20469;55.638;37.670;2023-04-03T17:41:34;11.80;1.00
34201;DHT22;20469;55.638;37.670;2023-04-03T17:44:02;11.70;1.00
34201;DHT22;20469;55.638;37.670;2023-04-03T17:46:29;11.60;1.00